createdAt,value
2018-09-27T00:01:59.337Z,4.90
2018-09-27T00:04:28.239Z,5.40
2018-09-27T00:06:56.954Z,4.90
2018-09-27T00:09:25.618Z,5.03
2018-09-27T00:11:54.350Z,5.10
2018-09-27T00:14:23.175Z,5.03
2018-09-27T00:16:51.956Z,4.23
2018-09-27T00:19:20.657Z,5.60
2018-09-27T00:21:49.986Z,5.20
2018-09-27T00:24:18.728Z,5.03
2018-09-27T00:26:47.452Z,5.03
2018-09-27T00:29:16.694Z,6.10
2018-09-27T00:31:45.368Z,5.57
2018-09-27T00:34:14.170Z,5.37
2018-09-27T00:36:42.891Z,5.97
2018-09-27T00:39:12.938Z,5.60
2018-09-27T00:41:41.640Z,5.40
2018-09-27T00:44:10.424Z,5.80
2018-09-27T00:46:39.099Z,6.40
2018-09-27T00:49:07.883Z,5.30
2018-09-27T00:51:36.630Z,5.00
2018-09-27T00:54:06.051Z,5.33
2018-09-27T00:56:34.879Z,5.27
2018-09-27T00:59:03.572Z,5.40
2018-09-27T01:01:32.258Z,5.70
2018-09-27T01:04:00.965Z,5.83
2018-09-27T01:06:29.981Z,5.93
2018-09-27T01:08:58.655Z,5.17
2018-09-27T01:11:27.387Z,5.90
2018-09-27T01:13:56.055Z,6.00
2018-09-27T01:16:24.802Z,5.90
2018-09-27T01:18:53.472Z,5.60
2018-09-27T01:21:22.281Z,5.47
2018-09-27T01:23:51.000Z,5.57
2018-09-27T01:26:19.758Z,5.13
2018-09-27T01:28:48.419Z,5.70
2018-09-27T01:31:17.299Z,6.37
2018-09-27T01:33:45.977Z,5.77
2018-09-27T01:36:14.691Z,5.67
2018-09-27T01:38:43.363Z,6.30
2018-09-27T01:41:12.157Z,5.60
2018-09-27T01:43:40.887Z,6.27
2018-09-27T01:46:09.862Z,5.37
2018-09-27T01:48:39.378Z,6.60
2018-09-27T01:51:08.135Z,6.03
2018-09-27T01:53:39.028Z,5.47
2018-09-27T01:56:07.726Z,5.80
2018-09-27T01:58:36.407Z,6.37
2018-09-27T02:01:05.125Z,5.80
2018-09-27T02:03:33.984Z,5.80
2018-09-27T02:06:03.159Z,5.00
2018-09-27T02:08:31.902Z,5.70
2018-09-27T02:11:00.754Z,4.93
2018-09-27T02:13:30.265Z,4.73
2018-09-27T02:15:58.973Z,4.60
2018-09-27T02:18:27.714Z,4.83
2018-09-27T02:20:56.489Z,5.30
2018-09-27T02:23:25.190Z,4.20
2018-09-27T02:25:53.920Z,4.20
2018-09-27T02:28:22.764Z,4.70
2018-09-27T02:30:51.471Z,4.50
2018-09-27T02:33:20.373Z,4.17
2018-09-27T02:35:49.083Z,5.20
2018-09-27T02:38:19.136Z,5.40
2018-09-27T02:40:47.942Z,4.67
2018-09-27T02:43:16.751Z,5.10
2018-09-27T02:45:45.555Z,4.97
2018-09-27T02:48:14.600Z,4.15
2018-09-27T02:50:43.608Z,4.97
2018-09-27T02:53:12.960Z,4.27
2018-09-27T02:55:41.755Z,4.40
2018-09-27T02:58:10.442Z,4.70
2018-09-27T03:00:39.160Z,5.03
2018-09-27T03:03:08.244Z,6.10
2018-09-27T03:05:37.013Z,5.67
2018-09-27T03:08:06.148Z,6.43
2018-09-27T03:10:34.835Z,6.47
2018-09-27T03:13:03.666Z,6.10
2018-09-27T03:15:32.364Z,5.90
2018-09-27T03:18:01.368Z,5.53
2018-09-27T03:20:30.460Z,5.37
2018-09-27T03:22:59.246Z,5.37
2018-09-27T03:25:28.091Z,6.30
2018-09-27T03:27:56.778Z,6.23
2018-09-27T03:30:25.557Z,5.83
2018-09-27T03:38:03.139Z,5.90
2018-09-27T03:40:31.844Z,6.73
2018-09-27T03:43:01.131Z,6.72
2018-09-27T03:45:29.885Z,6.30
2018-09-27T03:47:58.968Z,6.37
2018-09-27T03:50:28.047Z,7.10
2018-09-27T03:52:56.940Z,7.13
2018-09-27T03:55:25.679Z,6.77
2018-09-27T03:57:54.520Z,6.50
2018-09-27T04:00:23.204Z,6.97
2018-09-27T04:02:52.161Z,6.90
2018-09-27T04:05:21.304Z,7.25
2018-09-27T04:07:50.288Z,6.78
2018-09-27T04:10:19.347Z,7.70
2018-09-27T04:12:48.390Z,6.35
2018-09-27T04:15:17.046Z,7.10
2018-09-27T04:17:46.022Z,6.07
2018-09-27T04:20:14.864Z,6.57
2018-09-27T04:22:44.691Z,6.30
2018-09-27T04:25:13.414Z,7.23
2018-09-27T04:27:42.301Z,6.20
2018-09-27T04:30:11.184Z,6.80
2018-09-27T04:32:40.222Z,6.45
2018-09-27T04:35:08.902Z,7.30
2018-09-27T04:37:37.982Z,6.42
2018-09-27T04:40:07.370Z,7.42
2018-09-27T04:42:36.141Z,6.17
2018-09-27T04:45:05.427Z,6.80
2018-09-27T04:47:34.397Z,6.57
2018-09-27T04:50:03.133Z,7.37
2018-09-27T04:52:31.961Z,6.13
2018-09-27T04:55:00.623Z,6.50
2018-09-27T04:57:29.829Z,7.55
2018-09-27T04:59:59.002Z,6.58
2018-09-27T05:02:28.173Z,6.17
2018-09-27T05:04:56.928Z,7.10
2018-09-27T05:07:25.935Z,6.92
2018-09-27T05:09:55.030Z,7.87
2018-09-27T05:12:24.700Z,7.85
2018-09-27T05:14:54.158Z,7.37
2018-09-27T05:17:23.626Z,7.65
2018-09-27T05:19:52.383Z,6.77
2018-09-27T05:22:21.470Z,7.75
2018-09-27T05:24:50.445Z,7.20
2018-09-27T05:27:19.246Z,7.80
2018-09-27T05:29:48.208Z,7.20
2018-09-27T05:32:17.292Z,7.12
2018-09-27T05:34:46.126Z,6.87
2018-09-27T05:37:14.848Z,7.47
2018-09-27T05:39:43.659Z,7.40
2018-09-27T05:42:13.551Z,7.53
2018-09-27T05:44:42.545Z,6.53
2018-09-27T05:47:11.773Z,7.28
2018-09-27T05:49:40.478Z,6.33
2018-09-27T05:52:09.488Z,7.10
2018-09-27T05:54:38.202Z,7.60
2018-09-27T05:57:06.977Z,7.67
2018-09-27T05:59:35.714Z,7.70
2018-09-27T06:02:04.472Z,7.23
2018-09-27T06:04:33.709Z,6.50
2018-09-27T06:07:02.462Z,6.57
2018-09-27T06:09:31.191Z,6.37
2018-09-27T06:12:00.041Z,6.10
2018-09-27T06:14:28.842Z,7.47
2018-09-27T06:16:57.609Z,6.47
2018-09-27T06:19:26.592Z,7.00
2018-09-27T06:21:55.516Z,7.17
2018-09-27T06:24:24.346Z,7.00
2018-09-27T06:26:53.029Z,7.40
2018-09-27T06:29:21.754Z,6.70
2018-09-27T06:31:50.457Z,6.90
2018-09-27T06:34:19.194Z,6.63
2018-09-27T06:36:48.057Z,6.40
2018-09-27T06:39:16.840Z,7.00
2018-09-27T06:41:45.597Z,6.93
2018-09-27T06:44:14.346Z,6.97
2018-09-27T06:46:43.413Z,7.40
2018-09-27T06:49:13.519Z,6.93
2018-09-27T06:51:42.252Z,7.07
2018-09-27T06:54:10.927Z,7.10
2018-09-27T06:56:39.664Z,7.77
2018-09-27T06:59:09.011Z,7.40
2018-09-27T07:01:37.865Z,7.70
2018-09-27T07:04:06.628Z,7.07
2018-09-27T07:06:36.145Z,7.57
2018-09-27T07:09:07.249Z,8.00
2018-09-27T07:11:36.050Z,7.50
2018-09-27T07:14:04.912Z,6.93
2018-09-27T07:16:33.705Z,6.63
2018-09-27T07:19:02.555Z,8.07
2018-09-27T07:21:31.467Z,7.70
2018-09-27T07:24:00.688Z,7.30
2018-09-27T07:26:29.681Z,7.23
2018-09-27T07:28:58.839Z,8.87
2018-09-27T07:31:27.721Z,7.33
2018-09-27T07:33:56.469Z,7.97
2018-09-27T07:36:25.258Z,8.23
2018-09-27T07:38:54.218Z,7.30
2018-09-27T07:41:22.958Z,7.40
2018-09-27T07:43:51.738Z,8.00
2018-09-27T07:46:20.522Z,8.17
2018-09-27T07:48:49.917Z,8.60
2018-09-27T07:51:18.858Z,9.10
2018-09-27T07:53:47.685Z,8.93
2018-09-27T07:56:16.518Z,10.33
2018-09-27T07:58:45.690Z,10.60
2018-09-27T08:01:14.495Z,12.67
2018-09-27T08:03:43.321Z,11.77
2018-09-27T08:06:12.150Z,9.60
2018-09-27T08:08:41.156Z,10.03
2018-09-27T08:11:10.707Z,9.90
2018-09-27T08:13:40.549Z,9.90
2018-09-27T08:16:09.467Z,9.10
2018-09-27T08:18:39.109Z,8.63
2018-09-27T08:21:08.881Z,8.53
2018-09-27T08:23:37.848Z,8.93
2018-09-27T08:26:06.857Z,9.80
2018-09-27T08:28:35.576Z,9.13
2018-09-27T08:31:04.654Z,9.60
2018-09-27T08:33:33.487Z,8.80
2018-09-27T08:36:02.266Z,8.33
2018-09-27T08:38:31.025Z,8.63
2018-09-27T08:41:00.147Z,8.90
2018-09-27T08:43:29.008Z,9.40
2018-09-27T08:45:58.266Z,9.40
2018-09-27T08:48:28.100Z,8.80
2018-09-27T08:50:57.261Z,8.20
2018-09-27T08:53:27.234Z,8.90
2018-09-27T08:55:56.481Z,8.80
2018-09-27T08:58:25.432Z,8.10
2018-09-27T09:00:54.809Z,8.20
2018-09-27T09:03:23.901Z,8.93
2018-09-27T09:05:53.299Z,7.97
2018-09-27T09:08:22.869Z,8.50
2018-09-27T09:10:52.256Z,7.23
2018-09-27T09:13:21.302Z,7.20
2018-09-27T09:15:50.679Z,7.30
2018-09-27T09:18:19.709Z,7.13
2018-09-27T09:20:48.760Z,7.03
2018-09-27T09:23:17.708Z,6.97
2018-09-27T09:25:47.132Z,6.90
2018-09-27T09:28:16.194Z,6.57
2018-09-27T09:30:45.373Z,7.30
2018-09-27T09:33:14.364Z,6.90
2018-09-27T09:35:43.654Z,7.00
2018-09-27T09:38:12.916Z,8.40
2018-09-27T09:40:43.374Z,6.37
2018-09-27T09:43:12.563Z,7.50
2018-09-27T09:45:41.679Z,6.63
2018-09-27T09:48:10.741Z,6.90
2018-09-27T09:50:39.986Z,6.67
2018-09-27T09:53:09.011Z,7.30
2018-09-27T09:55:38.291Z,6.03
2018-09-27T09:58:07.620Z,6.20
2018-09-27T10:00:38.019Z,6.43
2018-09-27T10:03:08.612Z,19.10
2018-09-27T10:05:37.871Z,7.70
2018-09-27T10:08:06.910Z,18.53
2018-09-27T10:10:37.260Z,11.90
2018-09-27T10:13:07.003Z,7.70
2018-09-27T10:15:36.152Z,6.17
2018-09-27T10:18:05.454Z,6.33
2018-09-27T10:20:34.471Z,5.93
2018-09-27T10:23:03.623Z,7.80
2018-09-27T10:25:32.939Z,11.37
2018-09-27T10:28:02.090Z,6.60
2018-09-27T10:30:31.359Z,6.70
2018-09-27T10:33:00.281Z,7.90
2018-09-27T10:35:29.533Z,7.00
2018-09-27T10:37:58.581Z,6.50
2018-09-27T10:40:28.547Z,6.43
2018-09-27T10:42:58.023Z,6.60
2018-09-27T10:45:27.097Z,7.73
2018-09-27T10:47:56.777Z,6.27
2018-09-27T10:50:26.771Z,5.30
2018-09-27T10:52:56.022Z,4.90
2018-09-27T10:55:25.123Z,5.63
2018-09-27T10:57:54.631Z,6.83
2018-09-27T11:00:24.283Z,5.10
2018-09-27T11:02:53.782Z,4.17
2018-09-27T11:05:22.866Z,3.23
2018-09-27T11:07:52.569Z,3.47
2018-09-27T11:10:21.796Z,3.00
2018-09-27T11:12:50.967Z,8.20
2018-09-27T11:15:21.195Z,3.60
2018-09-27T11:17:50.384Z,3.27
2018-09-27T11:20:20.282Z,3.67
2018-09-27T11:22:49.378Z,3.03
2018-09-27T11:25:18.469Z,2.80
2018-09-27T11:27:48.355Z,3.30
2018-09-27T11:30:22.533Z,2.60
2018-09-27T11:32:51.740Z,2.83
2018-09-27T11:35:20.969Z,3.03
2018-09-27T11:37:50.128Z,2.50
2018-09-27T11:40:20.473Z,2.70
2018-09-27T11:42:50.398Z,2.47
2018-09-27T11:45:19.697Z,2.47
2018-09-27T11:47:49.140Z,2.10
2018-09-27T11:50:18.256Z,2.33
2018-09-27T11:52:47.679Z,2.23
2018-09-27T11:55:17.254Z,1.73
2018-09-27T11:57:46.594Z,2.53
2018-09-27T12:00:16.075Z,2.30
2018-09-27T12:02:45.807Z,2.30
2018-09-27T12:05:14.921Z,2.57
2018-09-27T12:07:44.942Z,2.20
2018-09-27T12:10:14.026Z,2.70
2018-09-27T12:12:43.431Z,2.53
2018-09-27T12:15:14.043Z,2.30
2018-09-27T12:17:43.164Z,2.27
2018-09-27T12:20:12.666Z,2.03
2018-09-27T12:22:41.910Z,2.80
2018-09-27T12:25:11.198Z,2.53
2018-09-27T12:27:40.491Z,2.33
2018-09-27T12:30:13.135Z,2.20
2018-09-27T12:32:42.247Z,2.03
2018-09-27T12:35:12.187Z,2.40
2018-09-27T12:37:41.618Z,2.50
2018-09-27T12:40:10.880Z,2.50
2018-09-27T12:42:40.150Z,2.40
2018-09-27T12:45:09.594Z,2.40
2018-09-27T12:47:39.282Z,2.97
2018-09-27T12:50:09.395Z,2.70
2018-09-27T12:52:38.653Z,2.07
2018-09-27T12:55:08.280Z,2.00
2018-09-27T12:57:37.533Z,2.23
2018-09-27T13:00:06.729Z,1.80
2018-09-27T13:02:36.091Z,2.30
2018-09-27T13:05:05.627Z,2.00
2018-09-27T13:07:34.871Z,2.10
2018-09-27T13:10:04.202Z,2.40
2018-09-27T13:12:34.372Z,1.70
2018-09-27T13:15:03.935Z,2.00
2018-09-27T13:17:33.661Z,2.10
2018-09-27T13:20:03.115Z,2.13
2018-09-27T13:22:32.276Z,2.17
2018-09-27T13:25:01.645Z,1.87
2018-09-27T13:27:30.725Z,1.60
2018-09-27T13:29:59.938Z,1.93
2018-09-27T13:32:29.191Z,2.13
2018-09-27T13:34:58.290Z,1.90
2018-09-27T13:37:27.365Z,4.00
2018-09-27T13:39:56.856Z,2.33
2018-09-27T13:42:26.483Z,2.47
2018-09-27T13:44:56.094Z,2.20
2018-09-27T13:47:25.411Z,2.17
2018-09-27T13:49:54.567Z,2.60
2018-09-27T13:52:24.034Z,2.47
2018-09-27T13:54:52.996Z,2.30
2018-09-27T13:57:22.402Z,2.37
2018-09-27T13:59:51.782Z,2.10
2018-09-27T14:02:20.880Z,2.10
2018-09-27T14:04:51.063Z,1.97
2018-09-27T14:07:20.406Z,2.27
2018-09-27T14:09:49.645Z,2.50
2018-09-27T14:12:18.654Z,1.87
2018-09-27T14:14:48.248Z,2.40
2018-09-27T14:17:20.587Z,2.37
2018-09-27T14:19:49.736Z,1.90
2018-09-27T14:22:18.836Z,1.90
2018-09-27T14:24:48.315Z,1.50
2018-09-27T14:27:17.520Z,1.60
2018-09-27T14:29:47.099Z,1.80
2018-09-27T14:32:16.289Z,1.80
2018-09-27T14:34:46.078Z,1.50
2018-09-27T14:37:15.145Z,2.43
2018-09-27T14:39:44.343Z,2.10
2018-09-27T14:42:13.464Z,2.13
2018-09-27T14:44:42.623Z,1.93
2018-09-27T14:47:12.175Z,1.50
2018-09-27T14:49:41.399Z,2.20
2018-09-27T14:52:10.967Z,2.77
2018-09-27T14:54:40.343Z,2.23
2018-09-27T14:57:09.785Z,2.20
2018-09-27T14:59:39.373Z,2.37
2018-09-27T15:02:09.165Z,2.33
2018-09-27T15:04:38.379Z,2.53
2018-09-27T15:07:07.593Z,2.77
2018-09-27T15:09:36.707Z,2.73
2018-09-27T15:12:05.878Z,2.87
2018-09-27T15:14:34.946Z,2.77
2018-09-27T15:17:04.223Z,4.17
2018-09-27T15:19:33.509Z,5.00
2018-09-27T15:22:02.726Z,5.40
2018-09-27T15:24:31.789Z,5.90
2018-09-27T15:27:01.102Z,5.60
2018-09-27T15:29:30.236Z,5.00
2018-09-27T15:31:59.304Z,6.00
2018-09-27T15:34:28.614Z,5.77
2018-09-27T15:36:57.812Z,5.03
2018-09-27T15:39:27.065Z,4.87
2018-09-27T15:41:56.183Z,5.70
2018-09-27T15:44:25.183Z,4.87
2018-09-27T15:46:54.715Z,5.50
2018-09-27T15:49:23.802Z,4.60
2018-09-27T15:51:52.797Z,5.10
2018-09-27T15:54:21.928Z,4.83
2018-09-27T15:56:51.108Z,4.90
2018-09-27T15:59:20.153Z,4.83
2018-09-27T16:01:49.332Z,4.87
2018-09-27T16:04:18.435Z,4.13
2018-09-27T16:06:47.592Z,4.13
2018-09-27T16:09:16.686Z,3.77
2018-09-27T16:11:45.959Z,3.80
2018-09-27T16:14:15.334Z,3.20
2018-09-27T16:16:44.478Z,3.23
2018-09-27T16:19:13.615Z,2.80
2018-09-27T16:21:42.907Z,2.90
2018-09-27T16:24:12.211Z,2.63
2018-09-27T16:26:42.220Z,3.20
2018-09-27T16:29:11.549Z,3.47
2018-09-27T16:31:40.504Z,2.60
2018-09-27T16:34:09.917Z,3.90
2018-09-27T16:36:38.895Z,3.37
2018-09-27T16:39:09.455Z,3.40
2018-09-27T16:41:39.287Z,3.17
2018-09-27T16:44:08.666Z,3.10
2018-09-27T16:46:38.100Z,4.37
2018-09-27T16:49:07.406Z,2.93
2018-09-27T16:51:36.725Z,3.07
2018-09-27T16:54:06.053Z,3.30
2018-09-27T16:56:35.188Z,3.23
2018-09-27T16:59:04.401Z,3.13
2018-09-27T17:01:33.407Z,2.53
2018-09-27T17:04:02.665Z,2.87
2018-09-27T17:06:32.012Z,3.17
2018-09-27T17:09:01.165Z,2.97
2018-09-27T17:11:30.409Z,3.03
2018-09-27T17:13:59.837Z,2.47
2018-09-27T17:16:28.961Z,7.53
2018-09-27T17:18:58.285Z,33.27
2018-09-27T17:21:27.578Z,17.43
2018-09-27T17:23:56.906Z,15.23
2018-09-27T17:26:25.991Z,7.20
2018-09-27T17:28:55.160Z,4.53
2018-09-27T17:31:24.474Z,4.10
2018-09-27T17:33:53.837Z,3.90
2018-09-27T17:36:23.086Z,3.63
2018-09-27T17:38:52.171Z,3.60
2018-09-27T17:41:21.231Z,3.33
2018-09-27T17:43:50.404Z,3.27
2018-09-27T17:46:20.529Z,3.43
2018-09-27T17:48:49.757Z,3.10
2018-09-27T17:51:18.992Z,3.43
2018-09-27T17:53:48.507Z,3.33
2018-09-27T17:56:17.744Z,3.47
2018-09-27T17:58:47.253Z,3.50
2018-09-27T18:01:16.843Z,3.93
2018-09-27T18:03:46.660Z,3.70
2018-09-27T18:06:15.788Z,3.20
2018-09-27T18:08:44.918Z,3.07
2018-09-27T18:11:14.999Z,3.20
2018-09-27T18:13:45.033Z,3.40
2018-09-27T18:16:14.581Z,3.33
2018-09-27T18:18:44.014Z,3.47
2018-09-27T18:21:13.547Z,3.63
2018-09-27T18:23:42.797Z,3.40
2018-09-27T18:26:11.769Z,3.53
2018-09-27T18:28:40.796Z,3.80
2018-09-27T18:31:10.344Z,3.60
2018-09-27T18:33:40.005Z,3.83
2018-09-27T18:36:09.235Z,3.57
2018-09-27T18:38:38.537Z,3.27
2018-09-27T18:41:07.988Z,4.43
2018-09-27T18:43:37.295Z,3.50
2018-09-27T18:46:06.535Z,3.80
2018-09-27T18:48:35.753Z,3.57
2018-09-27T18:51:06.111Z,4.07
2018-09-27T18:53:35.436Z,4.27
2018-09-27T18:56:04.552Z,4.30
2018-09-27T18:58:34.019Z,3.77
2018-09-27T19:01:03.244Z,3.80
2018-09-27T19:03:32.278Z,4.00
2018-09-27T19:06:01.586Z,4.50
2018-09-27T19:08:31.082Z,3.70
2018-09-27T19:11:00.167Z,4.10
2018-09-27T19:13:29.295Z,3.53
2018-09-27T19:15:58.312Z,3.70
2018-09-27T19:18:27.554Z,3.50
2018-09-27T19:20:56.869Z,3.80
2018-09-27T19:23:25.966Z,4.20
2018-09-27T19:25:55.180Z,3.90
2018-09-27T19:28:24.563Z,3.47
2018-09-27T19:30:53.674Z,3.90
2018-09-27T19:33:22.740Z,4.20
2018-09-27T19:35:52.114Z,3.50
2018-09-27T19:38:21.248Z,3.10
2018-09-27T19:40:50.679Z,3.63
2018-09-27T19:43:19.712Z,3.90
2018-09-27T19:45:49.061Z,3.50
2018-09-27T19:48:18.045Z,3.90
2018-09-27T19:50:47.342Z,4.00
2018-09-27T19:53:16.460Z,3.63
2018-09-27T19:55:45.456Z,3.73
2018-09-27T19:58:14.602Z,4.07
2018-09-27T20:00:43.928Z,4.40
2018-09-27T20:03:13.292Z,4.33
2018-09-27T20:05:42.270Z,4.70
2018-09-27T20:08:11.527Z,7.10
2018-09-27T20:10:41.486Z,5.20
2018-09-27T20:13:10.736Z,4.87
2018-09-27T20:15:40.374Z,3.90
2018-09-27T20:18:09.681Z,6.00
2018-09-27T20:20:38.816Z,3.80
2018-09-27T20:23:08.212Z,4.10
2018-09-27T20:25:37.814Z,3.70
2018-09-27T20:28:07.250Z,5.60
2018-09-27T20:30:36.792Z,5.10
2018-09-27T20:33:06.740Z,4.77
2018-09-27T20:35:36.244Z,4.83
2018-09-27T20:38:06.538Z,4.40
2018-09-27T20:40:35.699Z,5.40
2018-09-27T20:43:05.120Z,4.07
2018-09-27T20:45:34.623Z,7.27
2018-09-27T20:48:03.956Z,4.33
2018-09-27T20:50:33.404Z,4.17
2018-09-27T20:53:02.763Z,4.50
2018-09-27T20:55:31.955Z,4.90
2018-09-27T20:58:01.257Z,4.20
2018-09-27T21:00:30.378Z,4.70
2018-09-27T21:02:59.641Z,3.50
2018-09-27T21:05:29.262Z,3.50
2018-09-27T21:07:58.437Z,4.73
2018-09-27T21:10:27.539Z,6.80
2018-09-27T21:12:56.877Z,7.57
2018-09-27T21:15:25.983Z,4.17
2018-09-27T21:17:55.140Z,4.17
2018-09-27T21:20:24.186Z,4.20
2018-09-27T21:22:53.434Z,4.83
2018-09-27T21:25:23.570Z,5.00
2018-09-27T21:27:53.070Z,5.20
2018-09-27T21:30:22.195Z,3.83
2018-09-27T21:32:51.558Z,4.80
2018-09-27T21:35:20.771Z,4.10
2018-09-27T21:37:50.735Z,4.93
2018-09-27T21:40:19.797Z,4.23
2018-09-27T21:42:49.204Z,4.27
2018-09-27T21:45:18.473Z,4.90
2018-09-27T21:47:47.768Z,4.40
2018-09-27T21:50:17.301Z,3.93
2018-09-27T21:52:47.053Z,5.13
2018-09-27T21:55:16.138Z,4.77
2018-09-27T21:57:45.710Z,5.10
2018-09-27T22:00:15.114Z,5.30
2018-09-27T22:02:44.279Z,4.97
2018-09-27T22:05:13.287Z,5.10
2018-09-27T22:07:42.509Z,4.87
2018-09-27T22:10:11.572Z,5.43
2018-09-27T22:12:40.596Z,4.80
2018-09-27T22:15:09.685Z,4.77
2018-09-27T22:17:38.851Z,4.63
2018-09-27T22:20:08.445Z,5.53
2018-09-27T22:22:37.617Z,6.03
2018-09-27T22:25:06.615Z,5.80
2018-09-27T22:27:35.912Z,4.73
2018-09-27T22:30:05.525Z,4.97
2018-09-27T22:32:34.644Z,5.40
2018-09-27T22:35:03.864Z,5.13
2018-09-27T22:37:33.087Z,4.40
2018-09-27T22:40:02.359Z,5.17
2018-09-27T22:42:31.465Z,4.60
2018-09-27T22:45:00.871Z,4.80
2018-09-27T22:47:29.980Z,4.80
2018-09-27T22:49:59.255Z,4.57
2018-09-27T22:52:28.310Z,4.33
2018-09-27T22:54:57.257Z,5.10
2018-09-27T22:57:26.476Z,5.73
2018-09-27T22:59:55.856Z,5.00
2018-09-27T23:02:25.055Z,4.80
2018-09-27T23:04:54.082Z,5.10
2018-09-27T23:07:23.226Z,5.30
2018-09-27T23:09:52.618Z,5.63
2018-09-27T23:12:21.615Z,4.77
2018-09-27T23:14:50.637Z,5.30
2018-09-27T23:17:19.719Z,5.80
2018-09-27T23:19:48.843Z,4.90
2018-09-27T23:22:18.555Z,5.03
2018-09-27T23:24:47.889Z,4.60
2018-09-27T23:27:17.116Z,6.00
2018-09-27T23:29:46.380Z,4.50
2018-09-27T23:32:15.879Z,4.70
2018-09-27T23:34:45.391Z,5.27
2018-09-27T23:37:14.825Z,4.90
2018-09-27T23:39:44.676Z,5.30
2018-09-27T23:42:13.746Z,5.43
2018-09-27T23:44:42.783Z,4.87
2018-09-27T23:47:12.020Z,5.40
2018-09-27T23:49:41.316Z,5.60
2018-09-27T23:52:10.655Z,4.87
2018-09-27T23:54:39.994Z,6.00
2018-09-27T23:57:09.169Z,4.67
2018-09-27T23:59:38.642Z,5.40
